sensor_id;sensor_type;location;lat;lon;timestamp;P1;durP1;ratioP1;P2;durP2;ratioP2
11338;SDS011;5724;42.684;23.252;2023-03-11T00:01:13;3.97;;;3.67;;
11338;SDS011;5724;42.684;23.252;2023-03-11T00:03:38;1.77;;;1.43;;
11338;SDS011;5724;42.684;23.252;2023-03-11T00:06:04;1.00;;;1.00;;
11338;SDS011;5724;42.684;23.252;2023-03-11T00:08:31;1.83;;;1.10;;
11338;SDS011;5724;42.684;23.252;2023-03-11T00:10:57;1.70;;;1.20;;
11338;SDS011;5724;42.684;23.252;2023-03-11T00:13:25;1.30;;;1.30;;
11338;SDS011;5724;42.684;23.252;2023-03-11T00:15:52;0.90;;;0.90;;
11338;SDS011;5724;42.684;23.252;2023-03-11T00:18:20;1.10;;;0.80;;
11338;SDS011;5724;42.684;23.252;2023-03-11T00:20:49;0.80;;;0.80;;
11338;SDS011;5724;42.684;23.252;2023-03-11T00:23:15;0.93;;;0.93;;
11338;SDS011;5724;42.684;23.252;2023-03-11T00:25:41;2.23;;;0.70;;
11338;SDS011;5724;42.684;23.252;2023-03-11T00:28:08;0.60;;;0.50;;
11338;SDS011;5724;42.684;23.252;2023-03-11T00:30:38;1.37;;;0.70;;
11338;SDS011;5724;42.684;23.252;2023-03-11T00:33:05;0.53;;;0.53;;
11338;SDS011;5724;42.684;23.252;2023-03-11T00:35:31;0.50;;;0.50;;
11338;SDS011;5724;42.684;23.252;2023-03-11T00:37:58;0.60;;;0.50;;
11338;SDS011;5724;42.684;23.252;2023-03-11T00:40:30;0.40;;;0.40;;
11338;SDS011;5724;42.684;23.252;2023-03-11T00:42:57;0.63;;;0.63;;
11338;SDS011;5724;42.684;23.252;2023-03-11T00:45:24;0.67;;;0.67;;
11338;SDS011;5724;42.684;23.252;2023-03-11T00:47:51;1.13;;;0.60;;
11338;SDS011;5724;42.684;23.252;2023-03-11T00:50:19;0.63;;;0.60;;
11338;SDS011;5724;42.684;23.252;2023-03-11T00:52:49;0.60;;;0.60;;
11338;SDS011;5724;42.684;23.252;2023-03-11T00:55:17;1.08;;;1.00;;
11338;SDS011;5724;42.684;23.252;2023-03-11T00:57:45;0.80;;;0.80;;
11338;SDS011;5724;42.684;23.252;2023-03-11T01:00:14;0.80;;;0.80;;
11338;SDS011;5724;42.684;23.252;2023-03-11T01:02:43;0.93;;;0.93;;
11338;SDS011;5724;42.684;23.252;2023-03-11T01:05:09;1.35;;;0.75;;
11338;SDS011;5724;42.684;23.252;2023-03-11T01:07:35;1.75;;;1.13;;
11338;SDS011;5724;42.684;23.252;2023-03-11T01:10:00;2.05;;;1.60;;
11338;SDS011;5724;42.684;23.252;2023-03-11T01:12:26;1.65;;;1.08;;
11338;SDS011;5724;42.684;23.252;2023-03-11T01:14:52;1.65;;;1.35;;
11338;SDS011;5724;42.684;23.252;2023-03-11T01:17:17;1.20;;;1.20;;
11338;SDS011;5724;42.684;23.252;2023-03-11T01:19:43;2.08;;;1.20;;
11338;SDS011;5724;42.684;23.252;2023-03-11T01:22:09;1.20;;;1.20;;
11338;SDS011;5724;42.684;23.252;2023-03-11T01:24:34;1.42;;;1.33;;
11338;SDS011;5724;42.684;23.252;2023-03-11T01:27:00;1.17;;;1.17;;
11338;SDS011;5724;42.684;23.252;2023-03-11T01:29:25;1.50;;;1.38;;
11338;SDS011;5724;42.684;23.252;2023-03-11T01:31:51;1.85;;;1.73;;
11338;SDS011;5724;42.684;23.252;2023-03-11T01:34:18;1.67;;;1.50;;
11338;SDS011;5724;42.684;23.252;2023-03-11T01:36:43;1.93;;;1.83;;
11338;SDS011;5724;42.684;23.252;2023-03-11T01:39:09;1.65;;;1.55;;
11338;SDS011;5724;42.684;23.252;2023-03-11T01:41:34;2.30;;;1.93;;
11338;SDS011;5724;42.684;23.252;2023-03-11T01:44:00;3.60;;;1.90;;
11338;SDS011;5724;42.684;23.252;2023-03-11T01:46:27;1.90;;;1.70;;
11338;SDS011;5724;42.684;23.252;2023-03-11T01:49:01;1.80;;;1.70;;
11338;SDS011;5724;42.684;23.252;2023-03-11T01:51:46;2.15;;;1.98;;
11338;SDS011;5724;42.684;23.252;2023-03-11T01:56:46;2.63;;;1.40;;
11338;SDS011;5724;42.684;23.252;2023-03-11T01:59:15;2.05;;;1.92;;
11338;SDS011;5724;42.684;23.252;2023-03-11T02:04:45;1.00;;;1.00;;
11338;SDS011;5724;42.684;23.252;2023-03-11T02:07:12;0.90;;;0.90;;
11338;SDS011;5724;42.684;23.252;2023-03-11T02:09:38;1.65;;;0.70;;
11338;SDS011;5724;42.684;23.252;2023-03-11T02:12:04;1.63;;;1.17;;
11338;SDS011;5724;42.684;23.252;2023-03-11T02:14:31;0.70;;;0.70;;
11338;SDS011;5724;42.684;23.252;2023-03-11T02:16:59;0.85;;;0.85;;
11338;SDS011;5724;42.684;23.252;2023-03-11T02:19:35;0.70;;;0.70;;
11338;SDS011;5724;42.684;23.252;2023-03-11T02:22:15;1.37;;;0.70;;
11338;SDS011;5724;42.684;23.252;2023-03-11T02:27:10;0.70;;;0.70;;
11338;SDS011;5724;42.684;23.252;2023-03-11T02:29:38;0.60;;;0.60;;
11338;SDS011;5724;42.684;23.252;2023-03-11T02:32:06;0.60;;;0.60;;
11338;SDS011;5724;42.684;23.252;2023-03-11T02:34:35;0.63;;;0.63;;
11338;SDS011;5724;42.684;23.252;2023-03-11T02:37:06;0.70;;;0.70;;
11338;SDS011;5724;42.684;23.252;2023-03-11T02:39:35;0.85;;;0.60;;
11338;SDS011;5724;42.684;23.252;2023-03-11T02:42:04;1.23;;;0.50;;
11338;SDS011;5724;42.684;23.252;2023-03-11T02:44:34;0.60;;;0.60;;
11338;SDS011;5724;42.684;23.252;2023-03-11T02:47:00;0.95;;;0.63;;
11338;SDS011;5724;42.684;23.252;2023-03-11T02:49:26;0.88;;;0.60;;
11338;SDS011;5724;42.684;23.252;2023-03-11T02:51:51;0.90;;;0.73;;
11338;SDS011;5724;42.684;23.252;2023-03-11T02:54:17;1.15;;;0.70;;
11338;SDS011;5724;42.684;23.252;2023-03-11T02:56:42;0.70;;;0.70;;
11338;SDS011;5724;42.684;23.252;2023-03-11T02:59:08;0.60;;;0.60;;
11338;SDS011;5724;42.684;23.252;2023-03-11T03:01:34;0.73;;;0.73;;
11338;SDS011;5724;42.684;23.252;2023-03-11T03:03:59;0.60;;;0.60;;
11338;SDS011;5724;42.684;23.252;2023-03-11T03:06:25;0.52;;;0.50;;
11338;SDS011;5724;42.684;23.252;2023-03-11T03:08:52;0.67;;;0.67;;
11338;SDS011;5724;42.684;23.252;2023-03-11T03:11:18;0.60;;;0.60;;
11338;SDS011;5724;42.684;23.252;2023-03-11T03:13:44;0.55;;;0.50;;
11338;SDS011;5724;42.684;23.252;2023-03-11T03:16:09;1.10;;;0.57;;
11338;SDS011;5724;42.684;23.252;2023-03-11T03:18:35;0.52;;;0.52;;
11338;SDS011;5724;42.684;23.252;2023-03-11T03:21:01;0.55;;;0.50;;
11338;SDS011;5724;42.684;23.252;2023-03-11T03:23:26;1.23;;;0.70;;
11338;SDS011;5724;42.684;23.252;2023-03-11T03:25:52;0.40;;;0.40;;
11338;SDS011;5724;42.684;23.252;2023-03-11T03:28:17;0.40;;;0.40;;
11338;SDS011;5724;42.684;23.252;2023-03-11T03:30:43;0.52;;;0.52;;
11338;SDS011;5724;42.684;23.252;2023-03-11T03:33:08;0.63;;;0.40;;
11338;SDS011;5724;42.684;23.252;2023-03-11T03:35:34;0.30;;;0.30;;
11338;SDS011;5724;42.684;23.252;2023-03-11T03:38:00;0.40;;;0.40;;
11338;SDS011;5724;42.684;23.252;2023-03-11T03:40:25;1.63;;;0.53;;
11338;SDS011;5724;42.684;23.252;2023-03-11T03:42:51;0.40;;;0.40;;
11338;SDS011;5724;42.684;23.252;2023-03-11T03:45:17;0.50;;;0.50;;
11338;SDS011;5724;42.684;23.252;2023-03-11T03:47:43;0.50;;;0.50;;
11338;SDS011;5724;42.684;23.252;2023-03-11T03:50:09;0.40;;;0.40;;
11338;SDS011;5724;42.684;23.252;2023-03-11T03:52:35;0.35;;;0.35;;
11338;SDS011;5724;42.684;23.252;2023-03-11T03:55:02;0.43;;;0.43;;
11338;SDS011;5724;42.684;23.252;2023-03-11T03:57:29;0.40;;;0.40;;
11338;SDS011;5724;42.684;23.252;2023-03-11T03:59:55;0.30;;;0.30;;
11338;SDS011;5724;42.684;23.252;2023-03-11T04:02:21;0.40;;;0.40;;
11338;SDS011;5724;42.684;23.252;2023-03-11T04:04:46;0.40;;;0.40;;
11338;SDS011;5724;42.684;23.252;2023-03-11T04:07:12;0.30;;;0.30;;
11338;SDS011;5724;42.684;23.252;2023-03-11T04:09:41;0.45;;;0.45;;
11338;SDS011;5724;42.684;23.252;2023-03-11T04:12:10;0.73;;;0.30;;
11338;SDS011;5724;42.684;23.252;2023-03-11T04:14:38;0.60;;;0.60;;
11338;SDS011;5724;42.684;23.252;2023-03-11T04:17:04;0.40;;;0.40;;
11338;SDS011;5724;42.684;23.252;2023-03-11T04:19:30;0.30;;;0.30;;
11338;SDS011;5724;42.684;23.252;2023-03-11T04:21:56;0.57;;;0.40;;
11338;SDS011;5724;42.684;23.252;2023-03-11T04:24:22;0.30;;;0.30;;
11338;SDS011;5724;42.684;23.252;2023-03-11T04:26:48;0.20;;;0.20;;
11338;SDS011;5724;42.684;23.252;2023-03-11T04:29:13;0.40;;;0.40;;
11338;SDS011;5724;42.684;23.252;2023-03-11T04:31:39;0.40;;;0.40;;
11338;SDS011;5724;42.684;23.252;2023-03-11T04:34:04;0.20;;;0.20;;
11338;SDS011;5724;42.684;23.252;2023-03-11T04:36:30;0.30;;;0.30;;
11338;SDS011;5724;42.684;23.252;2023-03-11T04:38:55;0.40;;;0.40;;
11338;SDS011;5724;42.684;23.252;2023-03-11T04:41:21;0.50;;;0.50;;
11338;SDS011;5724;42.684;23.252;2023-03-11T04:43:47;0.30;;;0.30;;
11338;SDS011;5724;42.684;23.252;2023-03-11T04:46:13;0.40;;;0.40;;
11338;SDS011;5724;42.684;23.252;2023-03-11T04:48:38;0.40;;;0.40;;
11338;SDS011;5724;42.684;23.252;2023-03-11T04:51:04;0.40;;;0.40;;
11338;SDS011;5724;42.684;23.252;2023-03-11T04:53:29;0.40;;;0.40;;
11338;SDS011;5724;42.684;23.252;2023-03-11T04:55:55;2.20;;;0.60;;
11338;SDS011;5724;42.684;23.252;2023-03-11T04:58:20;0.40;;;0.38;;
11338;SDS011;5724;42.684;23.252;2023-03-11T05:00:46;1.42;;;0.40;;
11338;SDS011;5724;42.684;23.252;2023-03-11T05:03:11;0.52;;;0.52;;
11338;SDS011;5724;42.684;23.252;2023-03-11T05:05:37;0.60;;;0.60;;
11338;SDS011;5724;42.684;23.252;2023-03-11T05:08:02;0.40;;;0.40;;
11338;SDS011;5724;42.684;23.252;2023-03-11T05:10:28;0.30;;;0.30;;
11338;SDS011;5724;42.684;23.252;2023-03-11T05:12:54;0.52;;;0.52;;
11338;SDS011;5724;42.684;23.252;2023-03-11T05:15:19;0.40;;;0.40;;
11338;SDS011;5724;42.684;23.252;2023-03-11T05:17:45;1.17;;;1.10;;
11338;SDS011;5724;42.684;23.252;2023-03-11T05:20:10;0.98;;;0.98;;
11338;SDS011;5724;42.684;23.252;2023-03-11T05:22:36;0.50;;;0.50;;
11338;SDS011;5724;42.684;23.252;2023-03-11T05:25:02;0.80;;;0.80;;
11338;SDS011;5724;42.684;23.252;2023-03-11T05:27:29;0.60;;;0.60;;
11338;SDS011;5724;42.684;23.252;2023-03-11T05:29:54;0.80;;;0.80;;
11338;SDS011;5724;42.684;23.252;2023-03-11T05:32:20;1.33;;;0.80;;
11338;SDS011;5724;42.684;23.252;2023-03-11T05:34:46;1.00;;;1.00;;
11338;SDS011;5724;42.684;23.252;2023-03-11T05:37:11;0.70;;;0.70;;
11338;SDS011;5724;42.684;23.252;2023-03-11T05:39:38;0.60;;;0.60;;
11338;SDS011;5724;42.684;23.252;2023-03-11T05:42:04;0.90;;;0.90;;
11338;SDS011;5724;42.684;23.252;2023-03-11T05:44:30;1.00;;;1.00;;
11338;SDS011;5724;42.684;23.252;2023-03-11T05:46:56;1.10;;;0.55;;
11338;SDS011;5724;42.684;23.252;2023-03-11T05:49:22;0.55;;;0.55;;
11338;SDS011;5724;42.684;23.252;2023-03-11T05:51:48;0.70;;;0.70;;
11338;SDS011;5724;42.684;23.252;2023-03-11T05:54:14;0.95;;;0.95;;
11338;SDS011;5724;42.684;23.252;2023-03-11T05:56:40;1.42;;;1.00;;
11338;SDS011;5724;42.684;23.252;2023-03-11T05:59:07;0.63;;;0.63;;
11338;SDS011;5724;42.684;23.252;2023-03-11T06:01:33;1.00;;;0.70;;
11338;SDS011;5724;42.684;23.252;2023-03-11T06:03:58;1.55;;;0.73;;
11338;SDS011;5724;42.684;23.252;2023-03-11T06:06:24;1.10;;;1.10;;
11338;SDS011;5724;42.684;23.252;2023-03-11T06:08:49;0.90;;;0.90;;
11338;SDS011;5724;42.684;23.252;2023-03-11T06:11:15;0.88;;;0.88;;
11338;SDS011;5724;42.684;23.252;2023-03-11T06:13:41;0.80;;;0.80;;
11338;SDS011;5724;42.684;23.252;2023-03-11T06:16:06;0.80;;;0.80;;
11338;SDS011;5724;42.684;23.252;2023-03-11T06:18:32;1.10;;;1.10;;
11338;SDS011;5724;42.684;23.252;2023-03-11T06:20:58;1.10;;;1.00;;
11338;SDS011;5724;42.684;23.252;2023-03-11T06:23:24;1.48;;;1.10;;
11338;SDS011;5724;42.684;23.252;2023-03-11T06:25:57;1.02;;;0.93;;
11338;SDS011;5724;42.684;23.252;2023-03-11T06:28:25;1.25;;;1.20;;
11338;SDS011;5724;42.684;23.252;2023-03-11T06:30:50;0.90;;;0.90;;
11338;SDS011;5724;42.684;23.252;2023-03-11T06:33:16;0.90;;;0.90;;
11338;SDS011;5724;42.684;23.252;2023-03-11T06:35:42;0.90;;;0.90;;
11338;SDS011;5724;42.684;23.252;2023-03-11T06:38:07;1.33;;;1.08;;
11338;SDS011;5724;42.684;23.252;2023-03-11T06:40:33;1.02;;;1.02;;
11338;SDS011;5724;42.684;23.252;2023-03-11T06:42:58;0.70;;;0.70;;
11338;SDS011;5724;42.684;23.252;2023-03-11T06:45:24;0.85;;;0.85;;
11338;SDS011;5724;42.684;23.252;2023-03-11T06:47:49;1.40;;;1.00;;
11338;SDS011;5724;42.684;23.252;2023-03-11T06:50:15;1.45;;;1.35;;
11338;SDS011;5724;42.684;23.252;2023-03-11T06:52:41;1.15;;;1.15;;
11338;SDS011;5724;42.684;23.252;2023-03-11T06:55:07;1.30;;;1.13;;
11338;SDS011;5724;42.684;23.252;2023-03-11T06:57:32;1.10;;;1.00;;
11338;SDS011;5724;42.684;23.252;2023-03-11T06:59:58;1.05;;;1.05;;
11338;SDS011;5724;42.684;23.252;2023-03-11T07:02:24;0.90;;;0.90;;
11338;SDS011;5724;42.684;23.252;2023-03-11T07:04:49;1.73;;;1.00;;
11338;SDS011;5724;42.684;23.252;2023-03-11T07:07:15;2.00;;;1.15;;
11338;SDS011;5724;42.684;23.252;2023-03-11T07:09:41;1.58;;;1.48;;
11338;SDS011;5724;42.684;23.252;2023-03-11T07:12:07;1.30;;;1.20;;
11338;SDS011;5724;42.684;23.252;2023-03-11T07:14:33;1.30;;;1.20;;
11338;SDS011;5724;42.684;23.252;2023-03-11T07:16:58;1.60;;;1.50;;
11338;SDS011;5724;42.684;23.252;2023-03-11T07:19:24;1.45;;;1.35;;
11338;SDS011;5724;42.684;23.252;2023-03-11T07:21:49;1.45;;;1.38;;
11338;SDS011;5724;42.684;23.252;2023-03-11T07:24:15;1.02;;;1.02;;
11338;SDS011;5724;42.684;23.252;2023-03-11T07:26:40;1.27;;;1.17;;
11338;SDS011;5724;42.684;23.252;2023-03-11T07:29:06;1.10;;;1.00;;
11338;SDS011;5724;42.684;23.252;2023-03-11T07:31:34;1.05;;;1.05;;
11338;SDS011;5724;42.684;23.252;2023-03-11T07:34:02;1.55;;;1.30;;
11338;SDS011;5724;42.684;23.252;2023-03-11T07:36:29;2.75;;;1.20;;
11338;SDS011;5724;42.684;23.252;2023-03-11T07:38:59;1.15;;;0.82;;
11338;SDS011;5724;42.684;23.252;2023-03-11T07:41:29;1.33;;;0.85;;
11338;SDS011;5724;42.684;23.252;2023-03-11T07:43:56;1.00;;;0.60;;
11338;SDS011;5724;42.684;23.252;2023-03-11T07:46:23;1.08;;;0.90;;
11338;SDS011;5724;42.684;23.252;2023-03-11T07:48:50;0.82;;;0.70;;
11338;SDS011;5724;42.684;23.252;2023-03-11T07:51:26;1.65;;;0.93;;
11338;SDS011;5724;42.684;23.252;2023-03-11T07:53:54;0.90;;;0.90;;
11338;SDS011;5724;42.684;23.252;2023-03-11T07:56:21;0.75;;;0.75;;
11338;SDS011;5724;42.684;23.252;2023-03-11T07:58:48;2.38;;;1.20;;
11338;SDS011;5724;42.684;23.252;2023-03-11T08:01:15;1.90;;;1.30;;
11338;SDS011;5724;42.684;23.252;2023-03-11T08:03:46;1.23;;;1.13;;
11338;SDS011;5724;42.684;23.252;2023-03-11T08:06:20;2.60;;;1.05;;
11338;SDS011;5724;42.684;23.252;2023-03-11T08:08:47;1.15;;;0.70;;
11338;SDS011;5724;42.684;23.252;2023-03-11T08:11:14;2.53;;;0.63;;
11338;SDS011;5724;42.684;23.252;2023-03-11T08:13:41;0.82;;;0.80;;
11338;SDS011;5724;42.684;23.252;2023-03-11T08:16:08;0.82;;;0.82;;
11338;SDS011;5724;42.684;23.252;2023-03-11T08:18:36;1.10;;;0.90;;
11338;SDS011;5724;42.684;23.252;2023-03-11T08:21:05;0.85;;;0.73;;
11338;SDS011;5724;42.684;23.252;2023-03-11T08:23:32;0.88;;;0.88;;
11338;SDS011;5724;42.684;23.252;2023-03-11T08:25:58;1.63;;;0.70;;
11338;SDS011;5724;42.684;23.252;2023-03-11T08:28:26;1.77;;;0.82;;
11338;SDS011;5724;42.684;23.252;2023-03-11T08:30:52;0.88;;;0.88;;
11338;SDS011;5724;42.684;23.252;2023-03-11T08:33:17;0.90;;;0.90;;
11338;SDS011;5724;42.684;23.252;2023-03-11T08:35:42;1.20;;;1.20;;
11338;SDS011;5724;42.684;23.252;2023-03-11T08:38:08;2.47;;;1.48;;
11338;SDS011;5724;42.684;23.252;2023-03-11T08:40:33;0.80;;;0.80;;
11338;SDS011;5724;42.684;23.252;2023-03-11T08:42:59;1.13;;;1.00;;
11338;SDS011;5724;42.684;23.252;2023-03-11T08:45:24;1.25;;;0.98;;
11338;SDS011;5724;42.684;23.252;2023-03-11T08:47:50;1.33;;;1.25;;
11338;SDS011;5724;42.684;23.252;2023-03-11T08:50:16;1.98;;;1.23;;
11338;SDS011;5724;42.684;23.252;2023-03-11T08:52:42;0.70;;;0.70;;
11338;SDS011;5724;42.684;23.252;2023-03-11T08:55:09;1.08;;;0.98;;
11338;SDS011;5724;42.684;23.252;2023-03-11T08:57:37;1.33;;;0.57;;
11338;SDS011;5724;42.684;23.252;2023-03-11T09:00:04;1.45;;;1.35;;
11338;SDS011;5724;42.684;23.252;2023-03-11T09:02:31;1.15;;;0.73;;
11338;SDS011;5724;42.684;23.252;2023-03-11T09:04:57;1.27;;;0.70;;
11338;SDS011;5724;42.684;23.252;2023-03-11T09:07:22;0.85;;;0.85;;
11338;SDS011;5724;42.684;23.252;2023-03-11T09:09:48;1.55;;;0.70;;
11338;SDS011;5724;42.684;23.252;2023-03-11T09:12:13;0.80;;;0.80;;
11338;SDS011;5724;42.684;23.252;2023-03-11T09:14:39;1.27;;;0.85;;
11338;SDS011;5724;42.684;23.252;2023-03-11T09:17:06;0.90;;;0.80;;
11338;SDS011;5724;42.684;23.252;2023-03-11T09:19:32;1.20;;;1.10;;
11338;SDS011;5724;42.684;23.252;2023-03-11T09:22:01;3.67;;;0.95;;
11338;SDS011;5724;42.684;23.252;2023-03-11T09:24:27;0.90;;;0.90;;
11338;SDS011;5724;42.684;23.252;2023-03-11T09:26:52;1.48;;;1.38;;
11338;SDS011;5724;42.684;23.252;2023-03-11T09:29:18;1.23;;;1.10;;
11338;SDS011;5724;42.684;23.252;2023-03-11T09:31:43;0.85;;;0.85;;
11338;SDS011;5724;42.684;23.252;2023-03-11T09:34:10;1.20;;;0.90;;
11338;SDS011;5724;42.684;23.252;2023-03-11T09:36:41;1.70;;;0.70;;
11338;SDS011;5724;42.684;23.252;2023-03-11T09:39:07;0.77;;;0.70;;
11338;SDS011;5724;42.684;23.252;2023-03-11T09:41:52;0.73;;;0.73;;
11338;SDS011;5724;42.684;23.252;2023-03-11T09:44:41;2.25;;;0.90;;
11338;SDS011;5724;42.684;23.252;2023-03-11T09:50:07;2.50;;;0.90;;
11338;SDS011;5724;42.684;23.252;2023-03-11T09:58:01;0.75;;;0.60;;
11338;SDS011;5724;42.684;23.252;2023-03-11T10:00:35;0.77;;;0.77;;
11338;SDS011;5724;42.684;23.252;2023-03-11T10:03:02;0.73;;;0.73;;
11338;SDS011;5724;42.684;23.252;2023-03-11T10:05:36;0.98;;;0.82;;
11338;SDS011;5724;42.684;23.252;2023-03-11T10:08:09;1.05;;;0.70;;
11338;SDS011;5724;42.684;23.252;2023-03-11T10:10:50;0.93;;;0.93;;
11338;SDS011;5724;42.684;23.252;2023-03-11T10:13:57;1.60;;;0.80;;
11338;SDS011;5724;42.684;23.252;2023-03-11T10:17:03;1.00;;;1.00;;
11338;SDS011;5724;42.684;23.252;2023-03-11T10:22:40;0.80;;;0.80;;
11338;SDS011;5724;42.684;23.252;2023-03-11T10:25:15;0.73;;;0.70;;
11338;SDS011;5724;42.684;23.252;2023-03-11T10:27:48;0.52;;;0.52;;
11338;SDS011;5724;42.684;23.252;2023-03-11T10:30:32;0.90;;;0.90;;
11338;SDS011;5724;42.684;23.252;2023-03-11T10:33:06;0.75;;;0.75;;
11338;SDS011;5724;42.684;23.252;2023-03-11T10:35:40;0.68;;;0.68;;
11338;SDS011;5724;42.684;23.252;2023-03-11T10:40:34;1.30;;;0.90;;
11338;SDS011;5724;42.684;23.252;2023-03-11T10:43:15;0.90;;;0.90;;
11338;SDS011;5724;42.684;23.252;2023-03-11T10:45:43;1.40;;;0.90;;
11338;SDS011;5724;42.684;23.252;2023-03-11T10:48:15;0.90;;;0.80;;
11338;SDS011;5724;42.684;23.252;2023-03-11T10:50:48;2.05;;;1.00;;
11338;SDS011;5724;42.684;23.252;2023-03-11T10:53:23;1.13;;;1.10;;
11338;SDS011;5724;42.684;23.252;2023-03-11T10:55:50;2.20;;;0.80;;
11338;SDS011;5724;42.684;23.252;2023-03-11T10:58:20;0.70;;;0.60;;
11338;SDS011;5724;42.684;23.252;2023-03-11T11:03:25;0.70;;;0.70;;
11338;SDS011;5724;42.684;23.252;2023-03-11T11:05:58;1.35;;;0.82;;
11338;SDS011;5724;42.684;23.252;2023-03-11T11:08:30;1.73;;;0.80;;
11338;SDS011;5724;42.684;23.252;2023-03-11T11:10:57;0.85;;;0.85;;
11338;SDS011;5724;42.684;23.252;2023-03-11T11:13:28;0.80;;;0.80;;
11338;SDS011;5724;42.684;23.252;2023-03-11T11:16:00;0.90;;;0.90;;
11338;SDS011;5724;42.684;23.252;2023-03-11T11:18:34;3.90;;;1.27;;
11338;SDS011;5724;42.684;23.252;2023-03-11T11:21:07;0.63;;;0.50;;
11338;SDS011;5724;42.684;23.252;2023-03-11T11:23:45;1.02;;;0.85;;
11338;SDS011;5724;42.684;23.252;2023-03-11T11:26:17;2.78;;;1.23;;
11338;SDS011;5724;42.684;23.252;2023-03-11T11:28:45;1.00;;;0.90;;
11338;SDS011;5724;42.684;23.252;2023-03-11T11:31:23;0.90;;;0.90;;
11338;SDS011;5724;42.684;23.252;2023-03-11T11:33:54;1.13;;;1.13;;
11338;SDS011;5724;42.684;23.252;2023-03-11T11:36:21;1.33;;;1.15;;
11338;SDS011;5724;42.684;23.252;2023-03-11T11:38:52;1.38;;;0.80;;
11338;SDS011;5724;42.684;23.252;2023-03-11T11:41:19;1.02;;;0.88;;
11338;SDS011;5724;42.684;23.252;2023-03-11T11:43:59;1.00;;;1.00;;
11338;SDS011;5724;42.684;23.252;2023-03-11T11:46:39;1.02;;;0.93;;
11338;SDS011;5724;42.684;23.252;2023-03-11T11:51:45;0.70;;;0.70;;
11338;SDS011;5724;42.684;23.252;2023-03-11T11:54:14;0.90;;;0.90;;
11338;SDS011;5724;42.684;23.252;2023-03-11T11:56:43;1.45;;;1.20;;
11338;SDS011;5724;42.684;23.252;2023-03-11T11:59:14;1.13;;;1.13;;
11338;SDS011;5724;42.684;23.252;2023-03-11T12:01:45;0.85;;;0.80;;
11338;SDS011;5724;42.684;23.252;2023-03-11T12:11:04;1.08;;;1.00;;
11338;SDS011;5724;42.684;23.252;2023-03-11T12:21:46;1.63;;;0.80;;
11338;SDS011;5724;42.684;23.252;2023-03-11T12:25:03;0.75;;;0.75;;
11338;SDS011;5724;42.684;23.252;2023-03-11T12:27:30;1.60;;;1.38;;
11338;SDS011;5724;42.684;23.252;2023-03-11T12:30:09;1.30;;;1.17;;
11338;SDS011;5724;42.684;23.252;2023-03-11T12:32:46;1.15;;;0.90;;
11338;SDS011;5724;42.684;23.252;2023-03-11T12:35:25;2.05;;;0.85;;
11338;SDS011;5724;42.684;23.252;2023-03-11T12:38:14;1.80;;;0.80;;
11338;SDS011;5724;42.684;23.252;2023-03-11T12:40:56;1.40;;;0.80;;
11338;SDS011;5724;42.684;23.252;2023-03-11T12:45:59;1.60;;;0.93;;
11338;SDS011;5724;42.684;23.252;2023-03-11T12:50:58;1.30;;;0.90;;
11338;SDS011;5724;42.684;23.252;2023-03-11T13:10:12;2.08;;;1.45;;
11338;SDS011;5724;42.684;23.252;2023-03-11T13:12:48;1.60;;;1.50;;
11338;SDS011;5724;42.684;23.252;2023-03-11T13:15:24;1.50;;;1.40;;
11338;SDS011;5724;42.684;23.252;2023-03-11T13:18:36;1.35;;;1.25;;
11338;SDS011;5724;42.684;23.252;2023-03-11T13:23:23;1.50;;;1.40;;
11338;SDS011;5724;42.684;23.252;2023-03-11T13:34:02;1.52;;;1.42;;
11338;SDS011;5724;42.684;23.252;2023-03-11T13:42:44;3.53;;;2.70;;
11338;SDS011;5724;42.684;23.252;2023-03-11T13:45:29;1.33;;;1.23;;
11338;SDS011;5724;42.684;23.252;2023-03-11T13:48:03;1.20;;;1.10;;
11338;SDS011;5724;42.684;23.252;2023-03-11T13:50:36;1.33;;;1.23;;
11338;SDS011;5724;42.684;23.252;2023-03-11T13:53:07;1.43;;;1.33;;
11338;SDS011;5724;42.684;23.252;2023-03-11T13:55:43;1.20;;;1.10;;
11338;SDS011;5724;42.684;23.252;2023-03-11T13:58:14;1.50;;;1.00;;
11338;SDS011;5724;42.684;23.252;2023-03-11T14:00:48;1.47;;;1.47;;
11338;SDS011;5724;42.684;23.252;2023-03-11T14:03:24;2.00;;;1.13;;
11338;SDS011;5724;42.684;23.252;2023-03-11T14:05:56;1.42;;;1.33;;
11338;SDS011;5724;42.684;23.252;2023-03-11T14:13:21;2.03;;;1.30;;
11338;SDS011;5724;42.684;23.252;2023-03-11T14:18:24;1.60;;;1.50;;
11338;SDS011;5724;42.684;23.252;2023-03-11T14:20:51;1.67;;;1.57;;
11338;SDS011;5724;42.684;23.252;2023-03-11T14:23:17;1.48;;;1.42;;
11338;SDS011;5724;42.684;23.252;2023-03-11T14:25:44;1.60;;;1.50;;
11338;SDS011;5724;42.684;23.252;2023-03-11T14:28:19;1.50;;;1.40;;
11338;SDS011;5724;42.684;23.252;2023-03-11T14:30:55;3.15;;;2.83;;
11338;SDS011;5724;42.684;23.252;2023-03-11T14:33:22;2.05;;;1.95;;
11338;SDS011;5724;42.684;23.252;2023-03-11T14:35:52;1.98;;;1.88;;
11338;SDS011;5724;42.684;23.252;2023-03-11T14:38:24;2.10;;;1.90;;
11338;SDS011;5724;42.684;23.252;2023-03-11T14:40:56;2.33;;;2.13;;
11338;SDS011;5724;42.684;23.252;2023-03-11T14:43:22;1.83;;;1.73;;
11338;SDS011;5724;42.684;23.252;2023-03-11T14:45:49;2.85;;;2.72;;
11338;SDS011;5724;42.684;23.252;2023-03-11T14:48:27;2.70;;;2.60;;
11338;SDS011;5724;42.684;23.252;2023-03-11T14:50:57;2.90;;;2.70;;
11338;SDS011;5724;42.684;23.252;2023-03-11T14:53:33;2.55;;;2.25;;
11338;SDS011;5724;42.684;23.252;2023-03-11T14:56:01;1.88;;;1.77;;
11338;SDS011;5724;42.684;23.252;2023-03-11T14:58:31;3.42;;;2.20;;
11338;SDS011;5724;42.684;23.252;2023-03-11T15:01:03;2.70;;;1.90;;
11338;SDS011;5724;42.684;23.252;2023-03-11T15:03:39;2.38;;;2.00;;
11338;SDS011;5724;42.684;23.252;2023-03-11T15:08:45;2.15;;;2.05;;
11338;SDS011;5724;42.684;23.252;2023-03-11T15:13:39;4.65;;;2.97;;
11338;SDS011;5724;42.684;23.252;2023-03-11T15:16:31;4.17;;;3.63;;
11338;SDS011;5724;42.684;23.252;2023-03-11T15:19:19;3.30;;;2.97;;
11338;SDS011;5724;42.684;23.252;2023-03-11T15:21:57;5.63;;;2.93;;
11338;SDS011;5724;42.684;23.252;2023-03-11T15:24:27;3.77;;;2.90;;
11338;SDS011;5724;42.684;23.252;2023-03-11T15:26:56;3.17;;;2.83;;
11338;SDS011;5724;42.684;23.252;2023-03-11T15:29:26;2.80;;;2.60;;
11338;SDS011;5724;42.684;23.252;2023-03-11T15:31:53;4.22;;;3.83;;
11338;SDS011;5724;42.684;23.252;2023-03-11T15:34:23;7.07;;;6.38;;
11338;SDS011;5724;42.684;23.252;2023-03-11T15:36:54;20.33;;;15.53;;
11338;SDS011;5724;42.684;23.252;2023-03-11T15:44:29;4.18;;;3.45;;
11338;SDS011;5724;42.684;23.252;2023-03-11T15:47:00;5.43;;;4.60;;
11338;SDS011;5724;42.684;23.252;2023-03-11T15:49:26;7.17;;;6.67;;
11338;SDS011;5724;42.684;23.252;2023-03-11T15:51:56;5.30;;;5.00;;
11338;SDS011;5724;42.684;23.252;2023-03-11T15:54:26;4.37;;;4.17;;
11338;SDS011;5724;42.684;23.252;2023-03-11T15:56:51;4.60;;;4.30;;
11338;SDS011;5724;42.684;23.252;2023-03-11T15:59:19;5.53;;;5.23;;
11338;SDS011;5724;42.684;23.252;2023-03-11T16:01:45;5.57;;;5.17;;
11338;SDS011;5724;42.684;23.252;2023-03-11T16:04:15;5.70;;;5.40;;
11338;SDS011;5724;42.684;23.252;2023-03-11T16:06:42;5.57;;;5.27;;
11338;SDS011;5724;42.684;23.252;2023-03-11T16:09:09;6.10;;;5.70;;
11338;SDS011;5724;42.684;23.252;2023-03-11T16:11:35;5.83;;;5.33;;
11338;SDS011;5724;42.684;23.252;2023-03-11T16:14:02;6.70;;;6.20;;
11338;SDS011;5724;42.684;23.252;2023-03-11T16:16:28;7.00;;;6.60;;
11338;SDS011;5724;42.684;23.252;2023-03-11T16:18:54;4.40;;;4.10;;
11338;SDS011;5724;42.684;23.252;2023-03-11T16:21:20;3.53;;;3.23;;
11338;SDS011;5724;42.684;23.252;2023-03-11T16:23:48;3.30;;;3.20;;
11338;SDS011;5724;42.684;23.252;2023-03-11T16:26:14;2.90;;;2.80;;
11338;SDS011;5724;42.684;23.252;2023-03-11T16:28:40;4.07;;;3.67;;
11338;SDS011;5724;42.684;23.252;2023-03-11T16:31:06;4.13;;;3.50;;
11338;SDS011;5724;42.684;23.252;2023-03-11T16:33:35;3.63;;;3.17;;
11338;SDS011;5724;42.684;23.252;2023-03-11T16:36:01;3.50;;;2.53;;